»·PEaware :: N777WD KPOC-P20

N777WD :: KPOC-P20

FLIGHT INFORMATION

Flight Status: Arrived
Operator: Privately registered:
United States
More flights under this callsign
Pilot: Jim W. (29150)
Aircraft: BEECH AIRCRAFT DEBONAIR BONANZA
(BE33)
More flights by this aircraft type
Origin: KPOC Brackett
United States
Destination: P20 Avi Suquilla
United States
More flights between these airports :: More routes between these airports
Route: PALLO
File this flight plan on PilotEdge
Remarks:
Altitude:
(Current/Filed)
9,500ft
Speed:
(Current/Filed)
160kts
Departed: 19-Apr-23 02:13 PM
Arrived: 19-Apr-23 03:29 PM
Distance/Time
Traveled:
174nm/1:16
Distance/Time
To Go:
Arrived

Flight Plot

Page will automatically refresh every two minutes.

Flight plan parsing failed; only flown route is shown


Map Options




Map Legend


Flown Route
Filed Route
Departure Airport
Arrival Airport
Navaid (VOR, NDB)
Fix

Horizontal Profiles

Position Reports

Time Latitude Longitude Heading Altitude Ground
Speed
19-Apr-23 14:06 34.090316 -117.782651 359 992ft 0kts
19-Apr-23 14:07 34.090316 -117.782651 359 992ft 0kts
19-Apr-23 14:08 34.090316 -117.782651 359 992ft 0kts
19-Apr-23 14:09 34.090479 -117.778888 92 997ft 27kts
19-Apr-23 14:10 34.090287 -117.774989 95 1004ft 0kts
19-Apr-23 14:11 34.090299 -117.774822 68 1005ft 1kts
19-Apr-23 14:12 34.091350 -117.782765 275 1071ft 84kts
19-Apr-23 14:13 34.106230 -117.799482 7 1951ft 93kts
19-Apr-23 14:14 34.131031 -117.793390 23 2765ft 87kts
19-Apr-23 14:15 34.146329 -117.772283 78 3707ft 98kts
19-Apr-23 14:16 34.150424 -117.738576 76 4585ft 105kts
19-Apr-23 14:17 34.157443 -117.700654 81 5183ft 127kts
19-Apr-23 14:18 34.158510 -117.657858 90 5864ft 128kts
19-Apr-23 14:19 34.159562 -117.611376 95 6389ft 137kts
19-Apr-23 14:20 34.159751 -117.565775 95 6979ft 135kts
19-Apr-23 14:21 34.160109 -117.520707 96 7516ft 133kts
19-Apr-23 14:22 34.160538 -117.476134 96 8002ft 132kts
19-Apr-23 14:23 34.160940 -117.432096 96 8445ft 131kts
19-Apr-23 14:24 34.161330 -117.388245 96 8847ft 129kts
19-Apr-23 14:25 34.161708 -117.344929 96 9209ft 129kts
19-Apr-23 14:26 34.162058 -117.301383 96 9455ft 134kts
19-Apr-23 14:27 34.162400 -117.254770 96 9450ft 142kts
19-Apr-23 14:28 34.162790 -117.206366 96 9450ft 145kts
19-Apr-23 14:29 34.163133 -117.157564 96 9449ft 146kts
19-Apr-23 14:30 34.163505 -117.108532 96 9449ft 146kts
19-Apr-23 14:31 34.163755 -117.058979 95 9450ft 148kts
19-Apr-23 14:32 34.164068 -117.008853 95 9450ft 150kts
19-Apr-23 14:33 34.164334 -116.958042 94 9450ft 152kts
19-Apr-23 14:34 34.164616 -116.906656 93 9448ft 153kts
19-Apr-23 14:35 34.164895 -116.854941 92 9447ft 154kts
19-Apr-23 14:36 34.165155 -116.802914 92 9436ft 155kts
19-Apr-23 14:37 34.165165 -116.750775 90 9427ft 153kts
19-Apr-23 14:38 34.165486 -116.700367 89 9419ft 148kts
19-Apr-23 14:39 34.165721 -116.650578 89 9411ft 147kts
19-Apr-23 14:40 34.165841 -116.601115 90 9412ft 146kts
19-Apr-23 14:41 34.165989 -116.552076 89 9424ft 146kts
19-Apr-23 14:42 34.166086 -116.503137 90 9433ft 145kts
19-Apr-23 14:43 34.166195 -116.454297 90 9442ft 145kts
19-Apr-23 14:44 34.166235 -116.405610 90 9456ft 145kts
19-Apr-23 14:45 34.166314 -116.356854 90 9465ft 145kts
19-Apr-23 14:46 34.166262 -116.308181 90 9477ft 145kts
19-Apr-23 14:48 34.166285 -116.259397 90 9487ft 145kts
19-Apr-23 14:49 34.166298 -116.210645 90 9493ft 145kts
19-Apr-23 14:50 34.166262 -116.162027 90 9504ft 145kts
19-Apr-23 14:51 34.166195 -116.113202 90 9507ft 145kts
19-Apr-23 14:52 34.166116 -116.064462 91 9508ft 145kts
19-Apr-23 14:53 34.166030 -116.015459 90 9507ft 145kts
19-Apr-23 14:54 34.165906 -115.966621 90 9506ft 145kts
19-Apr-23 14:55 34.165765 -115.917939 90 9502ft 145kts
19-Apr-23 14:56 34.165639 -115.869404 90 9504ft 144kts
19-Apr-23 14:57 34.165451 -115.820792 90 9503ft 145kts
19-Apr-23 14:58 34.165245 -115.772035 90 9504ft 145kts
19-Apr-23 14:59 34.165097 -115.723363 90 9505ft 144kts
19-Apr-23 15:00 34.164770 -115.672325 90 9087ft 161kts
19-Apr-23 15:01 34.164533 -115.616638 89 8588ft 165kts
19-Apr-23 15:02 34.164174 -115.561075 89 8075ft 167kts
19-Apr-23 15:03 34.163889 -115.504749 89 7563ft 166kts
19-Apr-23 15:04 34.163482 -115.450003 88 7051ft 161kts
19-Apr-23 15:05 34.163191 -115.395866 89 6540ft 161kts
19-Apr-23 15:06 34.162699 -115.341637 89 6037ft 162kts
19-Apr-23 15:07 34.162236 -115.287331 88 5550ft 162kts
19-Apr-23 15:08 34.161830 -115.233011 88 5066ft 162kts
19-Apr-23 15:09 34.161435 -115.178268 88 4584ft 163kts
19-Apr-23 15:09 34.160933 -115.132310 88 4166ft 164kts
19-Apr-23 15:11 34.160247 -115.067982 87 3595ft 166kts
19-Apr-23 15:12 34.159733 -115.012862 87 3429ft 160kts
19-Apr-23 15:13 34.159169 -114.959396 86 3433ft 158kts
19-Apr-23 15:14 34.158603 -114.906472 88 3426ft 158kts
19-Apr-23 15:14 34.158208 -114.862362 86 3417ft 157kts
19-Apr-23 15:15 34.157452 -114.809541 86 3437ft 156kts
19-Apr-23 15:17 34.156700 -114.747930 87 3211ft 159kts
19-Apr-23 15:18 34.156186 -114.694483 85 2712ft 159kts
19-Apr-23 15:18 34.155564 -114.650192 89 2427ft 153kts
19-Apr-23 15:19 34.154796 -114.601360 87 2413ft 141kts
19-Apr-23 15:20 34.154207 -114.554393 86 2426ft 139kts
19-Apr-23 15:21 34.153736 -114.507939 85 2419ft 138kts
19-Apr-23 15:23 34.152659 -114.454348 85 2418ft 130kts
19-Apr-23 15:23 34.152368 -114.419026 86 2427ft 124kts
19-Apr-23 15:24 34.151441 -114.378734 89 2114ft 120kts
19-Apr-23 15:25 34.151603 -114.338505 80 1509ft 115kts
19-Apr-23 15:26 34.147958 -114.301936 100 1305ft 102kts
19-Apr-23 15:27 34.138386 -114.276770 64 749ft 79kts
19-Apr-23 15:28 34.149871 -114.267826 26 454ft 20kts
19-Apr-23 15:29 34.152671 -114.271211 327 447ft 18kts
19-Apr-23 15:30 34.153257 -114.271382 292 447ft 0kts
19-Apr-23 15:31 34.153301 -114.271511 292 447ft 0kts

Navigation Log

Ident Type
Flight plan parsing failed, navigation log unavailable